sensor_id;sensor_type;location;lat;lon;timestamp;temperature;humidity
51811;DHT22;52468;40.116;18.296;2023-03-31T00:01:00;11.80;77.30
51811;DHT22;52468;40.116;18.296;2023-03-31T00:03:31;11.80;77.50
51811;DHT22;52468;40.116;18.296;2023-03-31T00:06:00;11.80;77.60
51811;DHT22;52468;40.116;18.296;2023-03-31T00:08:32;11.80;77.80
51811;DHT22;52468;40.116;18.296;2023-03-31T00:11:04;11.80;77.80
51811;DHT22;52468;40.116;18.296;2023-03-31T00:13:34;11.80;77.80
51811;DHT22;52468;40.116;18.296;2023-03-31T00:16:08;11.80;77.90
51811;DHT22;52468;40.116;18.296;2023-03-31T00:18:36;11.80;78.00
51811;DHT22;52468;40.116;18.296;2023-03-31T00:21:08;11.80;78.30
51811;DHT22;52468;40.116;18.296;2023-03-31T00:23:36;11.80;78.40
51811;DHT22;52468;40.116;18.296;2023-03-31T00:26:04;11.80;78.50
51811;DHT22;52468;40.116;18.296;2023-03-31T00:28:32;11.80;78.70
51811;DHT22;52468;40.116;18.296;2023-03-31T00:31:03;11.80;78.70
51811;DHT22;52468;40.116;18.296;2023-03-31T00:33:31;11.80;78.80
51811;DHT22;52468;40.116;18.296;2023-03-31T00:35:59;11.80;78.90
51811;DHT22;52468;40.116;18.296;2023-03-31T00:38:29;11.80;79.10
51811;DHT22;52468;40.116;18.296;2023-03-31T00:40:57;11.80;79.30
51811;DHT22;52468;40.116;18.296;2023-03-31T00:46:20;11.90;79.50
51811;DHT22;52468;40.116;18.296;2023-03-31T00:48:53;11.90;79.60
51811;DHT22;52468;40.116;18.296;2023-03-31T00:51:29;11.90;79.60
51811;DHT22;52468;40.116;18.296;2023-03-31T00:54:01;11.90;79.80
51811;DHT22;52468;40.116;18.296;2023-03-31T00:56:35;11.90;80.00
51811;DHT22;52468;40.116;18.296;2023-03-31T00:59:06;11.90;79.90
51811;DHT22;52468;40.116;18.296;2023-03-31T01:01:35;11.90;80.00
51811;DHT22;52468;40.116;18.296;2023-03-31T01:04:06;12.00;80.10
51811;DHT22;52468;40.116;18.296;2023-03-31T01:06:47;12.00;80.30
51811;DHT22;52468;40.116;18.296;2023-03-31T01:09:17;12.00;80.50
51811;DHT22;52468;40.116;18.296;2023-03-31T01:11:47;12.00;80.50
51811;DHT22;52468;40.116;18.296;2023-03-31T01:14:15;12.00;80.70
51811;DHT22;52468;40.116;18.296;2023-03-31T01:16:44;12.00;81.00
51811;DHT22;52468;40.116;18.296;2023-03-31T01:20:04;12.00;81.10
51811;DHT22;52468;40.116;18.296;2023-03-31T01:27:45;12.10;81.30
51811;DHT22;52468;40.116;18.296;2023-03-31T01:33:38;12.10;81.30
51811;DHT22;52468;40.116;18.296;2023-03-31T01:47:54;12.10;81.80
51811;DHT22;52468;40.116;18.296;2023-03-31T01:52:46;12.10;81.80
51811;DHT22;52468;40.116;18.296;2023-03-31T01:58:35;12.10;81.80
51811;DHT22;52468;40.116;18.296;2023-03-31T02:04:20;12.10;82.20
51811;DHT22;52468;40.116;18.296;2023-03-31T02:06:54;12.00;82.20
51811;DHT22;52468;40.116;18.296;2023-03-31T02:09:34;12.10;82.30
51811;DHT22;52468;40.116;18.296;2023-03-31T02:12:08;12.00;82.10
51811;DHT22;52468;40.116;18.296;2023-03-31T02:14:41;12.00;82.20
51811;DHT22;52468;40.116;18.296;2023-03-31T02:17:14;12.00;82.10
51811;DHT22;52468;40.116;18.296;2023-03-31T02:19:47;12.00;82.00
51811;DHT22;52468;40.116;18.296;2023-03-31T02:22:18;12.00;82.20
51811;DHT22;52468;40.116;18.296;2023-03-31T02:24:50;12.00;82.20
51811;DHT22;52468;40.116;18.296;2023-03-31T02:27:29;12.00;82.10
51811;DHT22;52468;40.116;18.296;2023-03-31T02:30:00;12.00;82.30
51811;DHT22;52468;40.116;18.296;2023-03-31T02:32:38;12.00;82.30
51811;DHT22;52468;40.116;18.296;2023-03-31T02:35:11;11.90;82.40
51811;DHT22;52468;40.116;18.296;2023-03-31T02:37:40;12.00;82.50
51811;DHT22;52468;40.116;18.296;2023-03-31T02:40:13;12.00;82.50
51811;DHT22;52468;40.116;18.296;2023-03-31T02:42:43;11.90;82.70
51811;DHT22;52468;40.116;18.296;2023-03-31T02:48:06;11.90;82.40
51811;DHT22;52468;40.116;18.296;2023-03-31T02:51:00;11.90;82.50
51811;DHT22;52468;40.116;18.296;2023-03-31T03:07:24;11.80;82.60
51811;DHT22;52468;40.116;18.296;2023-03-31T03:12:57;11.80;82.80
51811;DHT22;52468;40.116;18.296;2023-03-31T03:15:36;11.80;82.90
51811;DHT22;52468;40.116;18.296;2023-03-31T03:18:08;11.80;82.90
51811;DHT22;52468;40.116;18.296;2023-03-31T03:20:37;11.80;82.80
51811;DHT22;52468;40.116;18.296;2023-03-31T03:23:07;11.80;82.80
51811;DHT22;52468;40.116;18.296;2023-03-31T03:25:34;11.80;82.90
51811;DHT22;52468;40.116;18.296;2023-03-31T03:28:02;11.80;83.00
51811;DHT22;52468;40.116;18.296;2023-03-31T03:30:30;11.80;83.10
51811;DHT22;52468;40.116;18.296;2023-03-31T03:32:58;11.80;83.10
51811;DHT22;52468;40.116;18.296;2023-03-31T03:35:26;11.80;83.00
51811;DHT22;52468;40.116;18.296;2023-03-31T03:37:53;11.80;82.90
51811;DHT22;52468;40.116;18.296;2023-03-31T03:40:21;11.80;82.90
51811;DHT22;52468;40.116;18.296;2023-03-31T03:42:49;11.80;83.00
51811;DHT22;52468;40.116;18.296;2023-03-31T03:45:17;11.80;83.10
51811;DHT22;52468;40.116;18.296;2023-03-31T03:47:45;11.70;83.30
51811;DHT22;52468;40.116;18.296;2023-03-31T03:50:13;11.70;83.30
51811;DHT22;52468;40.116;18.296;2023-03-31T03:52:42;11.80;83.30
51811;DHT22;52468;40.116;18.296;2023-03-31T03:55:10;11.80;83.30
51811;DHT22;52468;40.116;18.296;2023-03-31T03:57:38;11.80;83.20
51811;DHT22;52468;40.116;18.296;2023-03-31T04:00:07;11.80;83.40
51811;DHT22;52468;40.116;18.296;2023-03-31T04:02:38;11.80;83.30
51811;DHT22;52468;40.116;18.296;2023-03-31T04:05:07;11.80;83.20
51811;DHT22;52468;40.116;18.296;2023-03-31T04:07:35;11.80;83.50
51811;DHT22;52468;40.116;18.296;2023-03-31T04:10:03;11.80;83.50
51811;DHT22;52468;40.116;18.296;2023-03-31T04:12:36;11.80;83.40
51811;DHT22;52468;40.116;18.296;2023-03-31T04:15:04;11.80;83.60
51811;DHT22;52468;40.116;18.296;2023-03-31T04:17:32;11.80;83.60
51811;DHT22;52468;40.116;18.296;2023-03-31T04:20:04;11.80;83.40
51811;DHT22;52468;40.116;18.296;2023-03-31T04:22:32;11.80;83.40
51811;DHT22;52468;40.116;18.296;2023-03-31T04:25:03;11.80;83.40
51811;DHT22;52468;40.116;18.296;2023-03-31T04:27:31;11.80;83.50
51811;DHT22;52468;40.116;18.296;2023-03-31T04:30:01;11.80;83.40
51811;DHT22;52468;40.116;18.296;2023-03-31T04:32:29;11.80;83.50
51811;DHT22;52468;40.116;18.296;2023-03-31T04:34:59;11.80;83.50
51811;DHT22;52468;40.116;18.296;2023-03-31T04:37:29;11.80;83.60
51811;DHT22;52468;40.116;18.296;2023-03-31T04:40:01;11.90;83.60
51811;DHT22;52468;40.116;18.296;2023-03-31T04:42:36;11.90;83.70
51811;DHT22;52468;40.116;18.296;2023-03-31T04:45:04;11.90;83.90
51811;DHT22;52468;40.116;18.296;2023-03-31T04:47:32;12.00;83.80
51811;DHT22;52468;40.116;18.296;2023-03-31T04:50:00;12.00;83.90
51811;DHT22;52468;40.116;18.296;2023-03-31T04:52:28;12.00;83.90
51811;DHT22;52468;40.116;18.296;2023-03-31T04:54:56;12.00;83.90
51811;DHT22;52468;40.116;18.296;2023-03-31T04:57:23;12.10;84.00
51811;DHT22;52468;40.116;18.296;2023-03-31T04:59:51;12.20;84.20
51811;DHT22;52468;40.116;18.296;2023-03-31T05:02:19;12.30;84.20
51811;DHT22;52468;40.116;18.296;2023-03-31T05:04:51;12.30;84.20
51811;DHT22;52468;40.116;18.296;2023-03-31T05:07:19;12.40;84.30
51811;DHT22;52468;40.116;18.296;2023-03-31T05:09:47;12.50;84.50
51811;DHT22;52468;40.116;18.296;2023-03-31T05:12:15;12.60;84.60
51811;DHT22;52468;40.116;18.296;2023-03-31T05:14:43;12.70;84.80
51811;DHT22;52468;40.116;18.296;2023-03-31T05:17:11;12.90;84.90
51811;DHT22;52468;40.116;18.296;2023-03-31T05:19:38;13.10;84.60
51811;DHT22;52468;40.116;18.296;2023-03-31T05:22:06;13.30;84.30
51811;DHT22;52468;40.116;18.296;2023-03-31T05:24:34;13.40;84.20
51811;DHT22;52468;40.116;18.296;2023-03-31T05:27:02;13.50;84.30
51811;DHT22;52468;40.116;18.296;2023-03-31T05:29:30;13.70;84.20
51811;DHT22;52468;40.116;18.296;2023-03-31T05:31:58;13.90;83.90
51811;DHT22;52468;40.116;18.296;2023-03-31T05:34:26;14.00;84.00
51811;DHT22;52468;40.116;18.296;2023-03-31T05:36:54;14.20;84.10
51811;DHT22;52468;40.116;18.296;2023-03-31T05:39:22;14.30;83.80
51811;DHT22;52468;40.116;18.296;2023-03-31T05:41:50;14.50;83.90
51811;DHT22;52468;40.116;18.296;2023-03-31T05:44:17;14.60;83.60
51811;DHT22;52468;40.116;18.296;2023-03-31T05:46:47;14.80;83.60
51811;DHT22;52468;40.116;18.296;2023-03-31T05:49:15;15.00;83.70
51811;DHT22;52468;40.116;18.296;2023-03-31T05:51:43;15.10;83.20
51811;DHT22;52468;40.116;18.296;2023-03-31T05:54:12;15.30;82.80
51811;DHT22;52468;40.116;18.296;2023-03-31T05:56:40;15.50;82.80
51811;DHT22;52468;40.116;18.296;2023-03-31T05:59:07;15.70;82.40
51811;DHT22;52468;40.116;18.296;2023-03-31T06:01:36;15.90;81.90
51811;DHT22;52468;40.116;18.296;2023-03-31T06:04:03;16.00;81.80
51811;DHT22;52468;40.116;18.296;2023-03-31T06:06:31;16.00;81.80
51811;DHT22;52468;40.116;18.296;2023-03-31T06:09:04;16.10;81.50
51811;DHT22;52468;40.116;18.296;2023-03-31T06:11:32;16.30;81.30
51811;DHT22;52468;40.116;18.296;2023-03-31T06:14:00;16.50;81.20
51811;DHT22;52468;40.116;18.296;2023-03-31T06:16:27;16.70;80.80
51811;DHT22;52468;40.116;18.296;2023-03-31T06:18:56;16.90;80.40
51811;DHT22;52468;40.116;18.296;2023-03-31T06:21:24;17.10;80.90
51811;DHT22;52468;40.116;18.296;2023-03-31T06:23:51;17.40;80.80
51811;DHT22;52468;40.116;18.296;2023-03-31T06:26:22;17.50;80.10
51811;DHT22;52468;40.116;18.296;2023-03-31T06:28:51;17.50;79.30
51811;DHT22;52468;40.116;18.296;2023-03-31T06:31:21;17.70;79.60
51811;DHT22;52468;40.116;18.296;2023-03-31T06:33:49;17.70;78.30
51811;DHT22;52468;40.116;18.296;2023-03-31T06:36:19;17.80;78.10
51811;DHT22;52468;40.116;18.296;2023-03-31T06:38:49;17.80;77.90
51811;DHT22;52468;40.116;18.296;2023-03-31T06:41:18;18.00;76.70
51811;DHT22;52468;40.116;18.296;2023-03-31T06:43:48;18.00;75.80
51811;DHT22;52468;40.116;18.296;2023-03-31T06:46:17;17.90;75.30
51811;DHT22;52468;40.116;18.296;2023-03-31T06:48:45;18.00;74.90
51811;DHT22;52468;40.116;18.296;2023-03-31T06:51:17;18.10;74.90
51811;DHT22;52468;40.116;18.296;2023-03-31T06:53:45;18.10;74.60
51811;DHT22;52468;40.116;18.296;2023-03-31T06:56:12;18.20;74.40
51811;DHT22;52468;40.116;18.296;2023-03-31T06:58:40;18.30;73.30
51811;DHT22;52468;40.116;18.296;2023-03-31T07:01:08;18.50;73.60
51811;DHT22;52468;40.116;18.296;2023-03-31T07:03:38;18.50;72.90
51811;DHT22;52468;40.116;18.296;2023-03-31T07:06:05;18.60;71.40
51811;DHT22;52468;40.116;18.296;2023-03-31T07:08:33;18.80;71.30
51811;DHT22;52468;40.116;18.296;2023-03-31T07:11:01;18.90;71.00
51811;DHT22;52468;40.116;18.296;2023-03-31T07:13:30;19.00;70.70
51811;DHT22;52468;40.116;18.296;2023-03-31T07:15:58;18.90;69.70
51811;DHT22;52468;40.116;18.296;2023-03-31T07:18:25;18.90;70.00
51811;DHT22;52468;40.116;18.296;2023-03-31T07:21:01;19.10;69.80
51811;DHT22;52468;40.116;18.296;2023-03-31T07:23:30;19.10;68.50
51811;DHT22;52468;40.116;18.296;2023-03-31T07:25:58;19.10;69.50
51811;DHT22;52468;40.116;18.296;2023-03-31T07:28:29;19.20;70.40
51811;DHT22;52468;40.116;18.296;2023-03-31T07:30:57;19.10;68.70
51811;DHT22;52468;40.116;18.296;2023-03-31T07:33:25;19.00;68.90
51811;DHT22;52468;40.116;18.296;2023-03-31T07:35:53;19.10;67.10
51811;DHT22;52468;40.116;18.296;2023-03-31T07:38:30;19.20;66.20
51811;DHT22;52468;40.116;18.296;2023-03-31T07:40:58;19.30;65.20
51811;DHT22;52468;40.116;18.296;2023-03-31T07:43:32;19.50;64.40
51811;DHT22;52468;40.116;18.296;2023-03-31T07:46:00;19.50;63.20
51811;DHT22;52468;40.116;18.296;2023-03-31T07:48:28;19.50;63.60
51811;DHT22;52468;40.116;18.296;2023-03-31T07:50:56;19.70;63.30
51811;DHT22;52468;40.116;18.296;2023-03-31T07:53:30;20.00;63.00
51811;DHT22;52468;40.116;18.296;2023-03-31T07:55:58;20.20;61.80
51811;DHT22;52468;40.116;18.296;2023-03-31T07:58:26;20.20;61.20
51811;DHT22;52468;40.116;18.296;2023-03-31T08:00:55;20.20;60.70
51811;DHT22;52468;40.116;18.296;2023-03-31T08:03:23;20.30;59.90
51811;DHT22;52468;40.116;18.296;2023-03-31T08:05:52;20.20;60.10
51811;DHT22;52468;40.116;18.296;2023-03-31T08:08:20;20.30;59.90
51811;DHT22;52468;40.116;18.296;2023-03-31T08:10:48;20.40;60.20
51811;DHT22;52468;40.116;18.296;2023-03-31T08:13:16;20.60;60.00
51811;DHT22;52468;40.116;18.296;2023-03-31T08:15:44;20.80;59.40
51811;DHT22;52468;40.116;18.296;2023-03-31T08:18:12;20.90;59.10
51811;DHT22;52468;40.116;18.296;2023-03-31T08:20:40;20.80;58.90
51811;DHT22;52468;40.116;18.296;2023-03-31T08:23:08;20.60;59.60
51811;DHT22;52468;40.116;18.296;2023-03-31T08:25:38;20.50;61.00
51811;DHT22;52468;40.116;18.296;2023-03-31T08:28:06;20.50;60.90
51811;DHT22;52468;40.116;18.296;2023-03-31T08:30:37;20.80;61.10
51811;DHT22;52468;40.116;18.296;2023-03-31T08:33:06;21.10;59.80
51811;DHT22;52468;40.116;18.296;2023-03-31T08:35:38;21.20;58.20
51811;DHT22;52468;40.116;18.296;2023-03-31T08:38:06;21.30;57.70
51811;DHT22;52468;40.116;18.296;2023-03-31T08:40:42;21.40;57.20
51811;DHT22;52468;40.116;18.296;2023-03-31T08:43:13;21.30;57.30
51811;DHT22;52468;40.116;18.296;2023-03-31T08:45:45;21.30;56.90
51811;DHT22;52468;40.116;18.296;2023-03-31T08:51:11;20.90;58.40
51811;DHT22;52468;40.116;18.296;2023-03-31T08:53:51;20.90;58.40
51811;DHT22;52468;40.116;18.296;2023-03-31T08:56:23;20.70;58.60
51811;DHT22;52468;40.116;18.296;2023-03-31T08:58:53;20.60;59.60
51811;DHT22;52468;40.116;18.296;2023-03-31T09:07:26;21.10;58.90
51811;DHT22;52468;40.116;18.296;2023-03-31T09:12:45;21.30;57.80
51811;DHT22;52468;40.116;18.296;2023-03-31T09:15:28;21.30;57.10
51811;DHT22;52468;40.116;18.296;2023-03-31T09:18:02;21.10;57.70
51811;DHT22;52468;40.116;18.296;2023-03-31T09:20:37;21.20;57.60
51811;DHT22;52468;40.116;18.296;2023-03-31T09:25:46;21.10;57.60
51811;DHT22;52468;40.116;18.296;2023-03-31T09:28:21;21.10;57.20
51811;DHT22;52468;40.116;18.296;2023-03-31T09:30:49;21.00;57.30
51811;DHT22;52468;40.116;18.296;2023-03-31T09:33:26;21.10;57.00
51811;DHT22;52468;40.116;18.296;2023-03-31T09:36:00;21.20;57.00
51811;DHT22;52468;40.116;18.296;2023-03-31T09:38:28;21.20;57.50
51811;DHT22;52468;40.116;18.296;2023-03-31T09:40:59;21.40;57.10
51811;DHT22;52468;40.116;18.296;2023-03-31T09:43:29;21.50;56.80
51811;DHT22;52468;40.116;18.296;2023-03-31T09:45:58;21.40;56.00
51811;DHT22;52468;40.116;18.296;2023-03-31T09:48:35;21.50;56.10
51811;DHT22;52468;40.116;18.296;2023-03-31T09:51:07;21.60;56.40
51811;DHT22;52468;40.116;18.296;2023-03-31T09:53:55;21.50;56.30
51811;DHT22;52468;40.116;18.296;2023-03-31T09:56:51;21.60;55.40
51811;DHT22;52468;40.116;18.296;2023-03-31T09:59:32;21.40;55.80
51811;DHT22;52468;40.116;18.296;2023-03-31T10:02:28;21.30;56.10
51811;DHT22;52468;40.116;18.296;2023-03-31T10:05:02;21.20;56.20
51811;DHT22;52468;40.116;18.296;2023-03-31T10:07:30;21.30;57.30
51811;DHT22;52468;40.116;18.296;2023-03-31T10:09:59;21.50;56.20
51811;DHT22;52468;40.116;18.296;2023-03-31T10:12:29;21.40;56.40
51811;DHT22;52468;40.116;18.296;2023-03-31T10:15:13;21.50;56.80
51811;DHT22;52468;40.116;18.296;2023-03-31T10:17:45;21.60;56.40
51811;DHT22;52468;40.116;18.296;2023-03-31T10:20:38;21.60;56.00
51811;DHT22;52468;40.116;18.296;2023-03-31T10:23:32;21.50;55.90
51811;DHT22;52468;40.116;18.296;2023-03-31T10:26:01;21.40;56.00
51811;DHT22;52468;40.116;18.296;2023-03-31T10:28:32;21.40;56.30
51811;DHT22;52468;40.116;18.296;2023-03-31T10:31:02;21.50;55.90
51811;DHT22;52468;40.116;18.296;2023-03-31T10:33:31;21.50;55.50
51811;DHT22;52468;40.116;18.296;2023-03-31T10:36:07;21.50;55.60
51811;DHT22;52468;40.116;18.296;2023-03-31T10:38:37;21.70;56.00
51811;DHT22;52468;40.116;18.296;2023-03-31T10:41:09;21.70;56.50
51811;DHT22;52468;40.116;18.296;2023-03-31T10:43:46;21.90;55.30
51811;DHT22;52468;40.116;18.296;2023-03-31T10:46:15;21.90;54.20
51811;DHT22;52468;40.116;18.296;2023-03-31T10:48:43;22.00;54.30
51811;DHT22;52468;40.116;18.296;2023-03-31T10:53:52;22.00;54.90
51811;DHT22;52468;40.116;18.296;2023-03-31T10:56:42;22.10;54.60
51811;DHT22;52468;40.116;18.296;2023-03-31T11:10:36;22.50;53.50
51811;DHT22;52468;40.116;18.296;2023-03-31T11:21:22;22.60;50.60
51811;DHT22;52468;40.116;18.296;2023-03-31T11:29:45;22.70;50.00
51811;DHT22;52468;40.116;18.296;2023-03-31T11:32:53;22.70;50.20
51811;DHT22;52468;40.116;18.296;2023-03-31T11:41:18;23.00;46.80
51811;DHT22;52468;40.116;18.296;2023-03-31T11:43:52;23.10;46.50
51811;DHT22;52468;40.116;18.296;2023-03-31T11:46:36;23.00;46.70
51811;DHT22;52468;40.116;18.296;2023-03-31T11:49:23;22.90;47.80
51811;DHT22;52468;40.116;18.296;2023-03-31T11:52:28;23.00;49.10
51811;DHT22;52468;40.116;18.296;2023-03-31T11:55:06;23.00;48.90
51811;DHT22;52468;40.116;18.296;2023-03-31T11:57:49;23.10;49.30
51811;DHT22;52468;40.116;18.296;2023-03-31T12:00:23;23.30;47.10
51811;DHT22;52468;40.116;18.296;2023-03-31T12:05:26;23.30;48.10
51811;DHT22;52468;40.116;18.296;2023-03-31T12:08:06;23.50;48.10
51811;DHT22;52468;40.116;18.296;2023-03-31T12:10:36;23.60;47.50
51811;DHT22;52468;40.116;18.296;2023-03-31T12:13:35;23.70;48.10
51811;DHT22;52468;40.116;18.296;2023-03-31T12:21:18;23.90;47.80
51811;DHT22;52468;40.116;18.296;2023-03-31T12:23:47;23.90;47.00
51811;DHT22;52468;40.116;18.296;2023-03-31T12:28:59;23.90;48.10
51811;DHT22;52468;40.116;18.296;2023-03-31T12:31:28;24.00;47.60
51811;DHT22;52468;40.116;18.296;2023-03-31T12:34:09;23.90;48.20
51811;DHT22;52468;40.116;18.296;2023-03-31T12:42:35;23.80;49.30
51811;DHT22;52468;40.116;18.296;2023-03-31T12:45:29;23.80;49.60
51811;DHT22;52468;40.116;18.296;2023-03-31T12:56:20;24.10;48.90
51811;DHT22;52468;40.116;18.296;2023-03-31T12:58:48;24.10;48.10
51811;DHT22;52468;40.116;18.296;2023-03-31T13:01:25;24.10;48.80
51811;DHT22;52468;40.116;18.296;2023-03-31T13:04:19;24.20;48.80
51811;DHT22;52468;40.116;18.296;2023-03-31T13:06:56;24.10;48.80
51811;DHT22;52468;40.116;18.296;2023-03-31T13:12:07;24.30;48.40
51811;DHT22;52468;40.116;18.296;2023-03-31T13:14:37;24.40;48.10
51811;DHT22;52468;40.116;18.296;2023-03-31T13:17:36;24.20;48.70
51811;DHT22;52468;40.116;18.296;2023-03-31T13:20:29;24.20;49.10
51811;DHT22;52468;40.116;18.296;2023-03-31T13:25:46;24.10;48.50
51811;DHT22;52468;40.116;18.296;2023-03-31T13:50:29;24.00;48.70
51811;DHT22;52468;40.116;18.296;2023-03-31T13:55:43;24.10;48.10
51811;DHT22;52468;40.116;18.296;2023-03-31T13:58:40;24.30;47.60
51811;DHT22;52468;40.116;18.296;2023-03-31T14:07:28;24.70;46.80
51811;DHT22;52468;40.116;18.296;2023-03-31T14:09:58;25.10;45.70
51811;DHT22;52468;40.116;18.296;2023-03-31T14:12:32;26.00;44.50
51811;DHT22;52468;40.116;18.296;2023-03-31T14:15:01;26.40;43.90
51811;DHT22;52468;40.116;18.296;2023-03-31T14:17:32;26.30;44.30
51811;DHT22;52468;40.116;18.296;2023-03-31T14:25:42;26.30;43.70
51811;DHT22;52468;40.116;18.296;2023-03-31T14:31:30;25.20;45.60
51811;DHT22;52468;40.116;18.296;2023-03-31T14:34:39;24.80;46.50
51811;DHT22;52468;40.116;18.296;2023-03-31T14:37:12;24.50;47.30
51811;DHT22;52468;40.116;18.296;2023-03-31T14:39:46;24.10;48.40
51811;DHT22;52468;40.116;18.296;2023-03-31T14:42:17;23.50;50.00
51811;DHT22;52468;40.116;18.296;2023-03-31T14:44:47;22.80;52.00
51811;DHT22;52468;40.116;18.296;2023-03-31T14:47:28;22.40;53.50
51811;DHT22;52468;40.116;18.296;2023-03-31T14:50:12;22.10;54.50
51811;DHT22;52468;40.116;18.296;2023-03-31T14:52:47;21.80;55.40
51811;DHT22;52468;40.116;18.296;2023-03-31T14:55:16;21.50;56.60
51811;DHT22;52468;40.116;18.296;2023-03-31T14:57:46;21.50;56.90
51811;DHT22;52468;40.116;18.296;2023-03-31T15:00:32;21.50;57.00
51811;DHT22;52468;40.116;18.296;2023-03-31T15:03:02;21.50;57.00
51811;DHT22;52468;40.116;18.296;2023-03-31T15:05:36;21.40;57.40
51811;DHT22;52468;40.116;18.296;2023-03-31T15:08:07;21.40;57.70
51811;DHT22;52468;40.116;18.296;2023-03-31T15:10:40;21.50;57.70
51811;DHT22;52468;40.116;18.296;2023-03-31T15:13:11;21.70;56.90
51811;DHT22;52468;40.116;18.296;2023-03-31T15:15:42;21.70;56.60
51811;DHT22;52468;40.116;18.296;2023-03-31T15:18:14;21.50;57.10
51811;DHT22;52468;40.116;18.296;2023-03-31T15:20:44;21.40;57.60
51811;DHT22;52468;40.116;18.296;2023-03-31T15:23:24;21.10;58.30
51811;DHT22;52468;40.116;18.296;2023-03-31T15:26:07;20.90;59.00
51811;DHT22;52468;40.116;18.296;2023-03-31T15:28:38;20.60;59.80
51811;DHT22;52468;40.116;18.296;2023-03-31T15:31:09;20.40;60.60
51811;DHT22;52468;40.116;18.296;2023-03-31T15:33:38;20.40;60.90
51811;DHT22;52468;40.116;18.296;2023-03-31T15:36:10;20.30;61.30
51811;DHT22;52468;40.116;18.296;2023-03-31T15:38:38;20.30;62.10
51811;DHT22;52468;40.116;18.296;2023-03-31T15:41:13;20.80;61.00
51811;DHT22;52468;40.116;18.296;2023-03-31T15:43:48;21.50;59.60
51811;DHT22;52468;40.116;18.296;2023-03-31T15:46:54;22.10;57.70
51811;DHT22;52468;40.116;18.296;2023-03-31T15:49:25;23.00;54.90
51811;DHT22;52468;40.116;18.296;2023-03-31T15:51:54;22.90;54.60
51811;DHT22;52468;40.116;18.296;2023-03-31T15:54:39;22.50;55.50
51811;DHT22;52468;40.116;18.296;2023-03-31T15:57:08;22.00;56.50
51811;DHT22;52468;40.116;18.296;2023-03-31T15:59:50;21.60;57.90
51811;DHT22;52468;40.116;18.296;2023-03-31T16:02:24;21.80;58.00
51811;DHT22;52468;40.116;18.296;2023-03-31T16:04:56;21.80;57.80
51811;DHT22;52468;40.116;18.296;2023-03-31T16:07:27;21.60;57.90
51811;DHT22;52468;40.116;18.296;2023-03-31T16:12:35;20.70;60.00
51811;DHT22;52468;40.116;18.296;2023-03-31T16:15:08;20.40;60.80
51811;DHT22;52468;40.116;18.296;2023-03-31T16:17:38;20.00;61.80
51811;DHT22;52468;40.116;18.296;2023-03-31T16:20:17;19.60;63.20
51811;DHT22;52468;40.116;18.296;2023-03-31T16:22:50;19.30;64.30
51811;DHT22;52468;40.116;18.296;2023-03-31T16:25:24;19.20;65.20
51811;DHT22;52468;40.116;18.296;2023-03-31T16:27:56;19.00;66.10
51811;DHT22;52468;40.116;18.296;2023-03-31T16:30:39;18.80;67.00
51811;DHT22;52468;40.116;18.296;2023-03-31T16:33:16;18.60;67.70
51811;DHT22;52468;40.116;18.296;2023-03-31T16:35:52;18.50;68.30
51811;DHT22;52468;40.116;18.296;2023-03-31T16:38:24;18.40;69.00
51811;DHT22;52468;40.116;18.296;2023-03-31T16:40:53;18.40;69.10
51811;DHT22;52468;40.116;18.296;2023-03-31T16:43:27;18.30;69.50
51811;DHT22;52468;40.116;18.296;2023-03-31T16:45:58;18.20;70.00
51811;DHT22;52468;40.116;18.296;2023-03-31T16:48:28;18.10;70.30
51811;DHT22;52468;40.116;18.296;2023-03-31T16:50:57;18.10;70.50
51811;DHT22;52468;40.116;18.296;2023-03-31T16:53:29;18.00;70.80
51811;DHT22;52468;40.116;18.296;2023-03-31T16:55:57;17.90;71.10
51811;DHT22;52468;40.116;18.296;2023-03-31T16:58:26;17.80;71.50
51811;DHT22;52468;40.116;18.296;2023-03-31T17:00:56;17.60;72.20
51811;DHT22;52468;40.116;18.296;2023-03-31T17:03:25;17.50;72.70
51811;DHT22;52468;40.116;18.296;2023-03-31T17:05:55;17.40;73.40
51811;DHT22;52468;40.116;18.296;2023-03-31T17:08:25;17.40;73.50
51811;DHT22;52468;40.116;18.296;2023-03-31T17:11:14;17.30;73.50
51811;DHT22;52468;40.116;18.296;2023-03-31T17:13:43;17.20;74.10
51811;DHT22;52468;40.116;18.296;2023-03-31T17:16:11;17.10;74.60
51811;DHT22;52468;40.116;18.296;2023-03-31T17:18:45;17.10;74.90
51811;DHT22;52468;40.116;18.296;2023-03-31T17:21:14;17.10;75.10
51811;DHT22;52468;40.116;18.296;2023-03-31T17:23:43;17.00;75.10
51811;DHT22;52468;40.116;18.296;2023-03-31T17:26:12;17.10;75.10
51811;DHT22;52468;40.116;18.296;2023-03-31T17:28:40;17.00;75.30
51811;DHT22;52468;40.116;18.296;2023-03-31T17:31:12;17.00;75.50
51811;DHT22;52468;40.116;18.296;2023-03-31T17:33:41;16.90;75.80
51811;DHT22;52468;40.116;18.296;2023-03-31T17:36:10;17.00;75.70
51811;DHT22;52468;40.116;18.296;2023-03-31T17:38:38;17.00;75.60
51811;DHT22;52468;40.116;18.296;2023-03-31T17:41:09;16.90;75.90
51811;DHT22;52468;40.116;18.296;2023-03-31T17:43:37;16.90;75.90
51811;DHT22;52468;40.116;18.296;2023-03-31T17:46:08;16.90;76.20
51811;DHT22;52468;40.116;18.296;2023-03-31T17:48:39;16.90;76.40
51811;DHT22;52468;40.116;18.296;2023-03-31T17:51:10;16.90;76.20
51811;DHT22;52468;40.116;18.296;2023-03-31T17:53:41;16.90;76.10
51811;DHT22;52468;40.116;18.296;2023-03-31T17:56:10;16.90;76.40
51811;DHT22;52468;40.116;18.296;2023-03-31T17:58:38;16.80;76.50
51811;DHT22;52468;40.116;18.296;2023-03-31T18:01:07;16.80;76.70
51811;DHT22;52468;40.116;18.296;2023-03-31T18:03:35;16.80;77.00
51811;DHT22;52468;40.116;18.296;2023-03-31T18:06:11;16.80;77.00
51811;DHT22;52468;40.116;18.296;2023-03-31T18:08:40;16.80;77.00
51811;DHT22;52468;40.116;18.296;2023-03-31T18:11:09;16.90;77.30
51811;DHT22;52468;40.116;18.296;2023-03-31T18:13:37;17.00;77.10
51811;DHT22;52468;40.116;18.296;2023-03-31T18:16:06;17.00;77.10
51811;DHT22;52468;40.116;18.296;2023-03-31T18:18:40;16.90;77.20
51811;DHT22;52468;40.116;18.296;2023-03-31T18:21:10;17.00;77.10
51811;DHT22;52468;40.116;18.296;2023-03-31T18:23:39;17.00;76.70
51811;DHT22;52468;40.116;18.296;2023-03-31T18:26:08;17.00;77.00
51811;DHT22;52468;40.116;18.296;2023-03-31T18:28:37;17.00;76.90
51811;DHT22;52468;40.116;18.296;2023-03-31T18:31:07;16.90;77.00
51811;DHT22;52468;40.116;18.296;2023-03-31T18:33:35;16.80;77.40
51811;DHT22;52468;40.116;18.296;2023-03-31T18:36:04;16.80;77.30
51811;DHT22;52468;40.116;18.296;2023-03-31T18:38:33;16.80;77.30